sensor_id;sensor_type;location;lat;lon;timestamp;P1;durP1;ratioP1;P2;durP2;ratioP2
72209;SDS011;60113;48.762;12.302;2023-06-14T00:00:47;3.20;;;2.13;;
72209;SDS011;60113;48.762;12.302;2023-06-14T00:03:16;2.90;;;2.22;;
72209;SDS011;60113;48.762;12.302;2023-06-14T00:05:54;3.15;;;2.00;;
72209;SDS011;60113;48.762;12.302;2023-06-14T00:08:22;3.45;;;2.17;;
72209;SDS011;60113;48.762;12.302;2023-06-14T00:10:49;3.40;;;1.83;;
72209;SDS011;60113;48.762;12.302;2023-06-14T00:13:17;5.35;;;2.17;;
72209;SDS011;60113;48.762;12.302;2023-06-14T00:15:52;4.25;;;2.30;;
72209;SDS011;60113;48.762;12.302;2023-06-14T00:18:20;3.45;;;2.10;;
72209;SDS011;60113;48.762;12.302;2023-06-14T00:20:49;4.88;;;2.65;;
72209;SDS011;60113;48.762;12.302;2023-06-14T00:23:15;3.08;;;2.10;;
72209;SDS011;60113;48.762;12.302;2023-06-14T00:25:41;2.40;;;1.75;;
72209;SDS011;60113;48.762;12.302;2023-06-14T00:28:16;3.85;;;2.17;;
72209;SDS011;60113;48.762;12.302;2023-06-14T00:30:41;15.13;;;2.58;;
72209;SDS011;60113;48.762;12.302;2023-06-14T00:33:12;3.17;;;2.17;;
72209;SDS011;60113;48.762;12.302;2023-06-14T00:35:40;3.47;;;2.30;;
72209;SDS011;60113;48.762;12.302;2023-06-14T00:38:08;3.15;;;2.20;;
72209;SDS011;60113;48.762;12.302;2023-06-14T00:40:34;3.22;;;2.00;;
72209;SDS011;60113;48.762;12.302;2023-06-14T00:43:02;4.05;;;1.98;;
72209;SDS011;60113;48.762;12.302;2023-06-14T00:45:28;2.90;;;2.15;;
72209;SDS011;60113;48.762;12.302;2023-06-14T00:47:56;3.15;;;1.80;;
72209;SDS011;60113;48.762;12.302;2023-06-14T00:50:25;3.70;;;2.22;;
72209;SDS011;60113;48.762;12.302;2023-06-14T00:52:57;3.38;;;1.95;;
72209;SDS011;60113;48.762;12.302;2023-06-14T00:55:31;3.00;;;1.95;;
72209;SDS011;60113;48.762;12.302;2023-06-14T00:58:00;5.53;;;2.28;;
72209;SDS011;60113;48.762;12.302;2023-06-14T01:00:29;5.70;;;1.90;;
72209;SDS011;60113;48.762;12.302;2023-06-14T01:03:13;3.83;;;2.00;;
72209;SDS011;60113;48.762;12.302;2023-06-14T01:05:43;2.58;;;1.75;;
72209;SDS011;60113;48.762;12.302;2023-06-14T01:11:18;4.68;;;2.45;;
72209;SDS011;60113;48.762;12.302;2023-06-14T01:13:56;3.28;;;1.98;;
72209;SDS011;60113;48.762;12.302;2023-06-14T01:16:22;2.75;;;1.95;;
72209;SDS011;60113;48.762;12.302;2023-06-14T01:18:52;3.88;;;2.55;;
72209;SDS011;60113;48.762;12.302;2023-06-14T01:21:27;3.15;;;1.95;;
72209;SDS011;60113;48.762;12.302;2023-06-14T01:23:53;4.40;;;2.33;;
72209;SDS011;60113;48.762;12.302;2023-06-14T01:26:35;4.10;;;2.13;;
72209;SDS011;60113;48.762;12.302;2023-06-14T01:29:18;7.30;;;2.30;;
72209;SDS011;60113;48.762;12.302;2023-06-14T01:31:44;10.93;;;2.63;;
72209;SDS011;60113;48.762;12.302;2023-06-14T01:34:16;3.78;;;2.20;;
72209;SDS011;60113;48.762;12.302;2023-06-14T01:36:43;4.95;;;2.25;;
72209;SDS011;60113;48.762;12.302;2023-06-14T01:39:24;4.47;;;2.97;;
72209;SDS011;60113;48.762;12.302;2023-06-14T01:41:52;5.93;;;2.40;;
72209;SDS011;60113;48.762;12.302;2023-06-14T01:44:18;4.07;;;2.47;;
72209;SDS011;60113;48.762;12.302;2023-06-14T01:46:45;2.38;;;1.83;;
72209;SDS011;60113;48.762;12.302;2023-06-14T01:49:13;3.97;;;2.13;;
72209;SDS011;60113;48.762;12.302;2023-06-14T01:51:54;4.80;;;2.65;;
72209;SDS011;60113;48.762;12.302;2023-06-14T01:54:38;5.82;;;2.47;;
72209;SDS011;60113;48.762;12.302;2023-06-14T01:57:16;5.57;;;2.28;;
72209;SDS011;60113;48.762;12.302;2023-06-14T01:59:44;3.67;;;2.38;;
72209;SDS011;60113;48.762;12.302;2023-06-14T02:02:25;3.03;;;2.28;;
72209;SDS011;60113;48.762;12.302;2023-06-14T02:04:50;3.20;;;2.30;;
72209;SDS011;60113;48.762;12.302;2023-06-14T02:07:18;5.70;;;2.20;;
72209;SDS011;60113;48.762;12.302;2023-06-14T02:09:44;3.38;;;2.20;;
72209;SDS011;60113;48.762;12.302;2023-06-14T02:12:09;5.18;;;2.38;;
72209;SDS011;60113;48.762;12.302;2023-06-14T02:14:38;3.50;;;2.35;;
72209;SDS011;60113;48.762;12.302;2023-06-14T02:17:04;6.20;;;2.58;;
72209;SDS011;60113;48.762;12.302;2023-06-14T02:19:31;3.25;;;2.25;;
72209;SDS011;60113;48.762;12.302;2023-06-14T02:21:59;4.15;;;2.25;;
72209;SDS011;60113;48.762;12.302;2023-06-14T02:24:34;4.03;;;2.22;;
72209;SDS011;60113;48.762;12.302;2023-06-14T02:27:03;4.40;;;2.20;;
72209;SDS011;60113;48.762;12.302;2023-06-14T02:29:31;4.05;;;2.20;;
72209;SDS011;60113;48.762;12.302;2023-06-14T02:31:57;3.08;;;2.20;;
72209;SDS011;60113;48.762;12.302;2023-06-14T02:34:37;2.90;;;1.98;;
72209;SDS011;60113;48.762;12.302;2023-06-14T02:37:25;2.97;;;1.98;;
72209;SDS011;60113;48.762;12.302;2023-06-14T02:39:50;3.33;;;2.38;;
72209;SDS011;60113;48.762;12.302;2023-06-14T02:42:22;3.50;;;2.33;;
72209;SDS011;60113;48.762;12.302;2023-06-14T02:44:50;3.00;;;2.20;;
72209;SDS011;60113;48.762;12.302;2023-06-14T02:47:19;3.38;;;2.15;;
72209;SDS011;60113;48.762;12.302;2023-06-14T02:49:44;3.20;;;2.15;;
72209;SDS011;60113;48.762;12.302;2023-06-14T02:52:16;4.05;;;2.55;;
72209;SDS011;60113;48.762;12.302;2023-06-14T02:54:44;5.18;;;2.90;;
72209;SDS011;60113;48.762;12.302;2023-06-14T02:57:15;6.55;;;2.35;;
72209;SDS011;60113;48.762;12.302;2023-06-14T02:59:53;3.35;;;2.20;;
72209;SDS011;60113;48.762;12.302;2023-06-14T03:02:18;4.25;;;2.70;;
72209;SDS011;60113;48.762;12.302;2023-06-14T03:04:52;5.65;;;3.15;;
72209;SDS011;60113;48.762;12.302;2023-06-14T03:07:21;3.70;;;2.50;;
72209;SDS011;60113;48.762;12.302;2023-06-14T03:09:57;5.13;;;2.63;;
72209;SDS011;60113;48.762;12.302;2023-06-14T03:12:22;3.58;;;2.40;;
72209;SDS011;60113;48.762;12.302;2023-06-14T03:14:51;4.13;;;2.28;;
72209;SDS011;60113;48.762;12.302;2023-06-14T03:17:20;3.35;;;2.38;;
72209;SDS011;60113;48.762;12.302;2023-06-14T03:19:48;6.97;;;2.40;;
72209;SDS011;60113;48.762;12.302;2023-06-14T03:22:13;4.95;;;2.97;;
72209;SDS011;60113;48.762;12.302;2023-06-14T03:24:39;4.30;;;2.83;;
72209;SDS011;60113;48.762;12.302;2023-06-14T03:27:16;4.50;;;2.40;;
72209;SDS011;60113;48.762;12.302;2023-06-14T03:29:42;4.82;;;2.83;;
72209;SDS011;60113;48.762;12.302;2023-06-14T03:32:10;4.95;;;2.38;;
72209;SDS011;60113;48.762;12.302;2023-06-14T03:34:39;4.47;;;2.53;;
72209;SDS011;60113;48.762;12.302;2023-06-14T03:37:04;4.30;;;2.10;;
72209;SDS011;60113;48.762;12.302;2023-06-14T03:39:32;4.75;;;2.63;;
72209;SDS011;60113;48.762;12.302;2023-06-14T03:42:01;3.00;;;2.28;;
72209;SDS011;60113;48.762;12.302;2023-06-14T03:44:29;4.35;;;2.70;;
72209;SDS011;60113;48.762;12.302;2023-06-14T03:46:55;5.07;;;3.03;;
72209;SDS011;60113;48.762;12.302;2023-06-14T03:49:20;5.65;;;3.03;;
72209;SDS011;60113;48.762;12.302;2023-06-14T03:52:05;4.13;;;2.70;;
72209;SDS011;60113;48.762;12.302;2023-06-14T03:54:34;3.90;;;2.33;;
72209;SDS011;60113;48.762;12.302;2023-06-14T03:57:02;3.42;;;2.28;;
72209;SDS011;60113;48.762;12.302;2023-06-14T03:59:46;3.88;;;2.70;;
72209;SDS011;60113;48.762;12.302;2023-06-14T04:02:15;3.58;;;2.40;;
72209;SDS011;60113;48.762;12.302;2023-06-14T04:04:53;3.50;;;2.45;;
72209;SDS011;60113;48.762;12.302;2023-06-14T04:07:31;3.80;;;2.58;;
72209;SDS011;60113;48.762;12.302;2023-06-14T04:09:59;4.38;;;2.33;;
72209;SDS011;60113;48.762;12.302;2023-06-14T04:12:27;3.72;;;2.53;;
72209;SDS011;60113;48.762;12.302;2023-06-14T04:14:59;4.65;;;2.70;;
72209;SDS011;60113;48.762;12.302;2023-06-14T04:17:34;4.85;;;3.00;;
72209;SDS011;60113;48.762;12.302;2023-06-14T04:20:03;4.25;;;2.78;;
72209;SDS011;60113;48.762;12.302;2023-06-14T04:22:34;4.20;;;2.63;;
72209;SDS011;60113;48.762;12.302;2023-06-14T04:25:04;7.10;;;2.95;;
72209;SDS011;60113;48.762;12.302;2023-06-14T04:27:34;4.88;;;3.13;;
72209;SDS011;60113;48.762;12.302;2023-06-14T04:30:04;4.32;;;2.75;;
72209;SDS011;60113;48.762;12.302;2023-06-14T04:32:33;4.05;;;2.97;;
72209;SDS011;60113;48.762;12.302;2023-06-14T04:35:02;4.13;;;2.50;;
72209;SDS011;60113;48.762;12.302;2023-06-14T04:37:28;4.45;;;2.88;;
72209;SDS011;60113;48.762;12.302;2023-06-14T04:40:04;4.82;;;3.00;;
72209;SDS011;60113;48.762;12.302;2023-06-14T04:45:06;5.28;;;2.95;;
72209;SDS011;60113;48.762;12.302;2023-06-14T04:47:35;6.28;;;3.13;;
72209;SDS011;60113;48.762;12.302;2023-06-14T04:50:03;4.25;;;2.75;;
72209;SDS011;60113;48.762;12.302;2023-06-14T04:52:32;5.82;;;2.78;;
72209;SDS011;60113;48.762;12.302;2023-06-14T04:55:00;4.43;;;2.55;;
72209;SDS011;60113;48.762;12.302;2023-06-14T04:57:38;4.50;;;2.58;;
72209;SDS011;60113;48.762;12.302;2023-06-14T05:00:14;4.40;;;2.75;;
72209;SDS011;60113;48.762;12.302;2023-06-14T05:02:40;3.00;;;2.20;;
72209;SDS011;60113;48.762;12.302;2023-06-14T05:05:14;5.30;;;2.88;;
72209;SDS011;60113;48.762;12.302;2023-06-14T05:07:43;3.42;;;2.65;;
72209;SDS011;60113;48.762;12.302;2023-06-14T05:10:18;6.45;;;3.58;;
72209;SDS011;60113;48.762;12.302;2023-06-14T05:12:58;5.15;;;2.97;;
72209;SDS011;60113;48.762;12.302;2023-06-14T05:15:26;6.07;;;3.45;;
72209;SDS011;60113;48.762;12.302;2023-06-14T05:18:09;8.95;;;3.83;;
72209;SDS011;60113;48.762;12.302;2023-06-14T05:20:37;6.63;;;3.25;;
72209;SDS011;60113;48.762;12.302;2023-06-14T05:23:09;4.57;;;2.90;;
72209;SDS011;60113;48.762;12.302;2023-06-14T05:25:43;3.45;;;2.63;;
72209;SDS011;60113;48.762;12.302;2023-06-14T05:28:14;3.55;;;2.75;;
72209;SDS011;60113;48.762;12.302;2023-06-14T05:30:41;4.35;;;2.85;;
72209;SDS011;60113;48.762;12.302;2023-06-14T05:33:10;6.03;;;2.78;;
72209;SDS011;60113;48.762;12.302;2023-06-14T05:35:35;3.65;;;2.40;;
72209;SDS011;60113;48.762;12.302;2023-06-14T05:38:00;4.97;;;2.42;;
72209;SDS011;60113;48.762;12.302;2023-06-14T05:40:45;2.45;;;1.95;;
72209;SDS011;60113;48.762;12.302;2023-06-14T05:43:25;3.60;;;2.10;;
72209;SDS011;60113;48.762;12.302;2023-06-14T05:45:53;3.40;;;2.03;;
72209;SDS011;60113;48.762;12.302;2023-06-14T05:48:22;2.88;;;2.30;;
72209;SDS011;60113;48.762;12.302;2023-06-14T05:51:03;2.97;;;2.35;;
72209;SDS011;60113;48.762;12.302;2023-06-14T05:53:31;3.78;;;2.25;;
72209;SDS011;60113;48.762;12.302;2023-06-14T05:55:59;5.70;;;2.40;;
72209;SDS011;60113;48.762;12.302;2023-06-14T05:58:25;3.67;;;2.47;;
72209;SDS011;60113;48.762;12.302;2023-06-14T06:00:53;3.35;;;2.35;;
72209;SDS011;60113;48.762;12.302;2023-06-14T06:03:19;4.93;;;2.15;;
72209;SDS011;60113;48.762;12.302;2023-06-14T06:05:50;4.25;;;2.10;;
72209;SDS011;60113;48.762;12.302;2023-06-14T06:08:15;3.53;;;2.47;;
72209;SDS011;60113;48.762;12.302;2023-06-14T06:10:41;3.70;;;2.05;;
72209;SDS011;60113;48.762;12.302;2023-06-14T06:13:22;3.45;;;2.08;;
72209;SDS011;60113;48.762;12.302;2023-06-14T06:15:48;4.90;;;2.40;;
72209;SDS011;60113;48.762;12.302;2023-06-14T06:18:13;4.35;;;2.55;;
72209;SDS011;60113;48.762;12.302;2023-06-14T06:20:48;3.00;;;2.03;;
72209;SDS011;60113;48.762;12.302;2023-06-14T06:23:13;4.30;;;2.30;;
72209;SDS011;60113;48.762;12.302;2023-06-14T06:25:42;4.13;;;2.28;;
72209;SDS011;60113;48.762;12.302;2023-06-14T06:28:10;3.20;;;2.08;;
72209;SDS011;60113;48.762;12.302;2023-06-14T06:30:48;3.30;;;2.10;;
72209;SDS011;60113;48.762;12.302;2023-06-14T06:33:16;3.60;;;2.17;;
72209;SDS011;60113;48.762;12.302;2023-06-14T06:35:42;2.80;;;1.88;;
72209;SDS011;60113;48.762;12.302;2023-06-14T06:38:08;3.53;;;2.25;;
72209;SDS011;60113;48.762;12.302;2023-06-14T06:40:35;5.32;;;2.67;;
72209;SDS011;60113;48.762;12.302;2023-06-14T06:43:01;2.72;;;2.03;;
72209;SDS011;60113;48.762;12.302;2023-06-14T06:45:28;7.10;;;3.67;;
72209;SDS011;60113;48.762;12.302;2023-06-14T06:47:53;4.05;;;1.90;;
72209;SDS011;60113;48.762;12.302;2023-06-14T06:50:20;4.55;;;2.47;;
72209;SDS011;60113;48.762;12.302;2023-06-14T06:52:50;3.00;;;2.08;;
72209;SDS011;60113;48.762;12.302;2023-06-14T06:55:19;3.70;;;1.48;;
72209;SDS011;60113;48.762;12.302;2023-06-14T06:57:48;6.75;;;1.90;;
72209;SDS011;60113;48.762;12.302;2023-06-14T07:00:17;3.97;;;2.28;;
72209;SDS011;60113;48.762;12.302;2023-06-14T07:02:46;2.78;;;1.60;;
72209;SDS011;60113;48.762;12.302;2023-06-14T07:05:23;2.95;;;2.00;;
72209;SDS011;60113;48.762;12.302;2023-06-14T07:08:01;3.35;;;1.90;;
72209;SDS011;60113;48.762;12.302;2023-06-14T07:10:26;3.00;;;2.00;;
72209;SDS011;60113;48.762;12.302;2023-06-14T07:12:58;6.40;;;2.00;;
72209;SDS011;60113;48.762;12.302;2023-06-14T07:15:24;3.20;;;1.83;;
72209;SDS011;60113;48.762;12.302;2023-06-14T07:17:49;2.58;;;1.58;;
72209;SDS011;60113;48.762;12.302;2023-06-14T07:20:19;2.17;;;1.60;;
72209;SDS011;60113;48.762;12.302;2023-06-14T07:22:49;4.40;;;1.80;;
72209;SDS011;60113;48.762;12.302;2023-06-14T07:25:15;2.05;;;1.48;;
72209;SDS011;60113;48.762;12.302;2023-06-14T07:27:41;6.13;;;1.75;;
72209;SDS011;60113;48.762;12.302;2023-06-14T07:30:07;3.35;;;1.83;;
72209;SDS011;60113;48.762;12.302;2023-06-14T07:32:53;2.20;;;1.50;;
72209;SDS011;60113;48.762;12.302;2023-06-14T07:35:21;2.05;;;1.45;;
72209;SDS011;60113;48.762;12.302;2023-06-14T07:38:01;4.03;;;1.67;;
72209;SDS011;60113;48.762;12.302;2023-06-14T07:40:46;2.58;;;1.73;;
72209;SDS011;60113;48.762;12.302;2023-06-14T07:43:11;2.88;;;1.85;;
72209;SDS011;60113;48.762;12.302;2023-06-14T07:45:37;2.80;;;1.80;;
72209;SDS011;60113;48.762;12.302;2023-06-14T07:48:14;1.95;;;1.40;;
72209;SDS011;60113;48.762;12.302;2023-06-14T07:50:46;1.92;;;1.48;;
72209;SDS011;60113;48.762;12.302;2023-06-14T07:53:11;3.28;;;1.52;;
72209;SDS011;60113;48.762;12.302;2023-06-14T07:55:55;5.72;;;1.95;;
72209;SDS011;60113;48.762;12.302;2023-06-14T07:58:23;3.05;;;1.60;;
72209;SDS011;60113;48.762;12.302;2023-06-14T08:00:51;2.30;;;1.70;;
72209;SDS011;60113;48.762;12.302;2023-06-14T08:03:20;1.75;;;1.30;;
72209;SDS011;60113;48.762;12.302;2023-06-14T08:05:45;2.65;;;1.70;;
72209;SDS011;60113;48.762;12.302;2023-06-14T08:08:13;6.38;;;1.77;;
72209;SDS011;60113;48.762;12.302;2023-06-14T08:10:41;2.80;;;1.60;;
72209;SDS011;60113;48.762;12.302;2023-06-14T08:13:16;1.50;;;1.20;;
72209;SDS011;60113;48.762;12.302;2023-06-14T08:15:44;1.83;;;1.40;;
72209;SDS011;60113;48.762;12.302;2023-06-14T08:18:13;4.63;;;1.88;;
72209;SDS011;60113;48.762;12.302;2023-06-14T08:20:38;1.70;;;1.40;;
72209;SDS011;60113;48.762;12.302;2023-06-14T08:23:14;3.38;;;1.92;;
72209;SDS011;60113;48.762;12.302;2023-06-14T08:25:40;1.35;;;1.20;;
72209;SDS011;60113;48.762;12.302;2023-06-14T08:28:06;1.80;;;1.30;;
72209;SDS011;60113;48.762;12.302;2023-06-14T08:30:43;3.28;;;1.70;;
72209;SDS011;60113;48.762;12.302;2023-06-14T08:33:21;3.20;;;1.40;;
72209;SDS011;60113;48.762;12.302;2023-06-14T08:35:46;2.70;;;1.48;;
72209;SDS011;60113;48.762;12.302;2023-06-14T08:38:15;2.47;;;1.35;;
72209;SDS011;60113;48.762;12.302;2023-06-14T08:40:41;2.53;;;1.73;;
72209;SDS011;60113;48.762;12.302;2023-06-14T08:43:09;4.65;;;1.92;;
72209;SDS011;60113;48.762;12.302;2023-06-14T08:45:35;2.80;;;1.70;;
72209;SDS011;60113;48.762;12.302;2023-06-14T08:48:04;2.35;;;1.50;;
72209;SDS011;60113;48.762;12.302;2023-06-14T08:50:34;2.88;;;1.50;;
72209;SDS011;60113;48.762;12.302;2023-06-14T08:53:04;3.33;;;1.88;;
72209;SDS011;60113;48.762;12.302;2023-06-14T08:55:34;3.60;;;1.55;;
72209;SDS011;60113;48.762;12.302;2023-06-14T08:58:05;3.95;;;1.50;;
72209;SDS011;60113;48.762;12.302;2023-06-14T09:00:31;2.53;;;1.40;;
72209;SDS011;60113;48.762;12.302;2023-06-14T09:03:00;2.17;;;1.50;;
72209;SDS011;60113;48.762;12.302;2023-06-14T09:05:26;2.17;;;1.35;;
72209;SDS011;60113;48.762;12.302;2023-06-14T09:08:04;3.65;;;1.60;;
72209;SDS011;60113;48.762;12.302;2023-06-14T09:10:33;4.30;;;1.25;;
72209;SDS011;60113;48.762;12.302;2023-06-14T09:13:03;2.47;;;1.45;;
72209;SDS011;60113;48.762;12.302;2023-06-14T09:15:32;1.92;;;1.60;;
72209;SDS011;60113;48.762;12.302;2023-06-14T09:17:58;2.25;;;1.55;;
72209;SDS011;60113;48.762;12.302;2023-06-14T09:20:29;2.47;;;1.55;;
72209;SDS011;60113;48.762;12.302;2023-06-14T09:23:04;4.78;;;1.90;;
72209;SDS011;60113;48.762;12.302;2023-06-14T09:25:30;3.45;;;1.33;;
72209;SDS011;60113;48.762;12.302;2023-06-14T09:27:58;2.50;;;1.52;;
72209;SDS011;60113;48.762;12.302;2023-06-14T09:30:30;2.47;;;1.00;;
72209;SDS011;60113;48.762;12.302;2023-06-14T09:33:05;6.18;;;1.23;;
72209;SDS011;60113;48.762;12.302;2023-06-14T09:35:31;4.13;;;1.55;;
72209;SDS011;60113;48.762;12.302;2023-06-14T09:38:00;1.48;;;1.17;;
72209;SDS011;60113;48.762;12.302;2023-06-14T09:40:33;2.30;;;1.55;;
72209;SDS011;60113;48.762;12.302;2023-06-14T09:43:04;1.58;;;1.20;;
72209;SDS011;60113;48.762;12.302;2023-06-14T09:45:44;1.77;;;1.48;;
72209;SDS011;60113;48.762;12.302;2023-06-14T09:48:13;2.25;;;1.42;;
72209;SDS011;60113;48.762;12.302;2023-06-14T09:50:44;4.15;;;1.75;;
72209;SDS011;60113;48.762;12.302;2023-06-14T09:53:23;1.65;;;1.40;;
72209;SDS011;60113;48.762;12.302;2023-06-14T09:55:50;3.10;;;1.48;;
72209;SDS011;60113;48.762;12.302;2023-06-14T09:58:19;3.95;;;0.82;;
72209;SDS011;60113;48.762;12.302;2023-06-14T10:00:46;3.58;;;1.60;;
72209;SDS011;60113;48.762;12.302;2023-06-14T10:03:24;2.13;;;1.42;;
72209;SDS011;60113;48.762;12.302;2023-06-14T10:05:55;1.80;;;0.95;;
72209;SDS011;60113;48.762;12.302;2023-06-14T10:08:30;3.08;;;1.67;;
72209;SDS011;60113;48.762;12.302;2023-06-14T10:11:11;2.88;;;1.40;;
72209;SDS011;60113;48.762;12.302;2023-06-14T10:13:41;2.58;;;1.27;;
72209;SDS011;60113;48.762;12.302;2023-06-14T10:16:15;1.50;;;1.30;;
72209;SDS011;60113;48.762;12.302;2023-06-14T10:24:23;2.22;;;1.50;;
72209;SDS011;60113;48.762;12.302;2023-06-14T10:27:19;2.22;;;1.65;;
72209;SDS011;60113;48.762;12.302;2023-06-14T10:30:03;1.65;;;1.23;;
72209;SDS011;60113;48.762;12.302;2023-06-14T10:32:29;1.50;;;1.13;;
72209;SDS011;60113;48.762;12.302;2023-06-14T10:35:00;2.60;;;1.35;;
72209;SDS011;60113;48.762;12.302;2023-06-14T10:37:33;1.48;;;1.20;;
72209;SDS011;60113;48.762;12.302;2023-06-14T10:39:58;2.22;;;1.60;;
72209;SDS011;60113;48.762;12.302;2023-06-14T10:42:32;4.43;;;1.80;;
72209;SDS011;60113;48.762;12.302;2023-06-14T10:45:04;3.40;;;1.63;;
72209;SDS011;60113;48.762;12.302;2023-06-14T10:47:35;2.65;;;1.45;;
72209;SDS011;60113;48.762;12.302;2023-06-14T10:50:06;1.88;;;1.20;;
72209;SDS011;60113;48.762;12.302;2023-06-14T10:52:39;4.63;;;1.67;;
72209;SDS011;60113;48.762;12.302;2023-06-14T10:55:12;3.65;;;1.67;;
72209;SDS011;60113;48.762;12.302;2023-06-14T10:57:48;4.00;;;1.70;;
72209;SDS011;60113;48.762;12.302;2023-06-14T11:00:24;2.70;;;1.88;;
72209;SDS011;60113;48.762;12.302;2023-06-14T11:08:23;2.13;;;1.40;;
72209;SDS011;60113;48.762;12.302;2023-06-14T11:11:01;4.10;;;2.13;;
72209;SDS011;60113;48.762;12.302;2023-06-14T11:13:45;2.47;;;1.67;;
72209;SDS011;60113;48.762;12.302;2023-06-14T11:16:14;2.20;;;1.60;;
72209;SDS011;60113;48.762;12.302;2023-06-14T11:18:42;2.55;;;1.83;;
72209;SDS011;60113;48.762;12.302;2023-06-14T11:21:23;3.10;;;1.70;;
72209;SDS011;60113;48.762;12.302;2023-06-14T11:23:50;4.47;;;1.77;;
72209;SDS011;60113;48.762;12.302;2023-06-14T11:26:23;1.70;;;1.33;;
72209;SDS011;60113;48.762;12.302;2023-06-14T11:28:54;2.20;;;1.50;;
72209;SDS011;60113;48.762;12.302;2023-06-14T11:31:24;2.17;;;1.75;;
72209;SDS011;60113;48.762;12.302;2023-06-14T11:33:54;2.15;;;1.63;;
72209;SDS011;60113;48.762;12.302;2023-06-14T11:36:29;7.43;;;1.90;;
72209;SDS011;60113;48.762;12.302;2023-06-14T11:39:00;2.25;;;1.60;;
72209;SDS011;60113;48.762;12.302;2023-06-14T11:41:42;5.25;;;1.40;;
72209;SDS011;60113;48.762;12.302;2023-06-14T11:44:08;2.55;;;1.98;;
72209;SDS011;60113;48.762;12.302;2023-06-14T11:46:34;3.00;;;1.98;;
72209;SDS011;60113;48.762;12.302;2023-06-14T11:49:03;2.40;;;1.70;;
72209;SDS011;60113;48.762;12.302;2023-06-14T11:51:42;2.30;;;1.60;;
72209;SDS011;60113;48.762;12.302;2023-06-14T11:54:10;2.83;;;1.55;;
72209;SDS011;60113;48.762;12.302;2023-06-14T11:56:49;5.03;;;1.70;;
72209;SDS011;60113;48.762;12.302;2023-06-14T11:59:17;2.72;;;1.70;;
72209;SDS011;60113;48.762;12.302;2023-06-14T12:01:47;1.75;;;1.58;;
72209;SDS011;60113;48.762;12.302;2023-06-14T12:04:13;1.65;;;1.42;;
72209;SDS011;60113;48.762;12.302;2023-06-14T12:06:38;3.40;;;1.85;;
72209;SDS011;60113;48.762;12.302;2023-06-14T12:09:08;3.10;;;1.58;;
72209;SDS011;60113;48.762;12.302;2023-06-14T12:11:44;2.67;;;1.58;;
72209;SDS011;60113;48.762;12.302;2023-06-14T12:14:12;2.78;;;1.60;;
72209;SDS011;60113;48.762;12.302;2023-06-14T12:17:06;2.30;;;1.35;;
72209;SDS011;60113;48.762;12.302;2023-06-14T12:19:44;5.32;;;1.60;;
72209;SDS011;60113;48.762;12.302;2023-06-14T12:22:11;2.65;;;1.80;;
72209;SDS011;60113;48.762;12.302;2023-06-14T12:24:43;3.17;;;1.58;;
72209;SDS011;60113;48.762;12.302;2023-06-14T12:27:22;2.30;;;1.65;;
72209;SDS011;60113;48.762;12.302;2023-06-14T12:30:01;2.65;;;1.83;;
72209;SDS011;60113;48.762;12.302;2023-06-14T12:32:31;1.98;;;1.52;;
72209;SDS011;60113;48.762;12.302;2023-06-14T12:35:09;3.65;;;1.98;;
72209;SDS011;60113;48.762;12.302;2023-06-14T12:37:34;5.82;;;1.85;;
72209;SDS011;60113;48.762;12.302;2023-06-14T12:40:03;2.28;;;1.80;;
72209;SDS011;60113;48.762;12.302;2023-06-14T12:42:33;2.85;;;1.90;;
72209;SDS011;60113;48.762;12.302;2023-06-14T12:44:59;6.80;;;1.50;;
72209;SDS011;60113;48.762;12.302;2023-06-14T12:47:37;2.08;;;1.70;;
72209;SDS011;60113;48.762;12.302;2023-06-14T12:50:15;1.30;;;0.98;;
72209;SDS011;60113;48.762;12.302;2023-06-14T12:52:49;4.80;;;1.50;;
72209;SDS011;60113;48.762;12.302;2023-06-14T12:55:24;1.98;;;1.70;;
72209;SDS011;60113;48.762;12.302;2023-06-14T12:58:04;2.03;;;1.30;;
72209;SDS011;60113;48.762;12.302;2023-06-14T13:00:33;9.25;;;1.77;;
72209;SDS011;60113;48.762;12.302;2023-06-14T13:02:59;2.33;;;1.60;;
72209;SDS011;60113;48.762;12.302;2023-06-14T13:05:34;5.15;;;1.80;;
72209;SDS011;60113;48.762;12.302;2023-06-14T13:08:02;2.05;;;1.50;;
72209;SDS011;60113;48.762;12.302;2023-06-14T13:10:43;2.45;;;1.73;;
72209;SDS011;60113;48.762;12.302;2023-06-14T13:13:08;3.70;;;1.80;;
72209;SDS011;60113;48.762;12.302;2023-06-14T13:15:43;1.92;;;1.50;;
72209;SDS011;60113;48.762;12.302;2023-06-14T13:18:22;2.75;;;1.60;;
72209;SDS011;60113;48.762;12.302;2023-06-14T13:20:57;2.20;;;1.50;;
72209;SDS011;60113;48.762;12.302;2023-06-14T13:23:22;3.92;;;2.15;;
72209;SDS011;60113;48.762;12.302;2023-06-14T13:26:11;1.95;;;1.45;;
72209;SDS011;60113;48.762;12.302;2023-06-14T13:28:49;1.65;;;1.23;;
72209;SDS011;60113;48.762;12.302;2023-06-14T13:31:20;3.42;;;1.85;;
72209;SDS011;60113;48.762;12.302;2023-06-14T13:33:46;3.17;;;1.50;;
72209;SDS011;60113;48.762;12.302;2023-06-14T13:36:14;2.50;;;1.50;;
72209;SDS011;60113;48.762;12.302;2023-06-14T13:38:43;4.97;;;1.42;;
72209;SDS011;60113;48.762;12.302;2023-06-14T13:41:27;2.33;;;1.60;;
72209;SDS011;60113;48.762;12.302;2023-06-14T13:44:04;2.97;;;1.50;;
72209;SDS011;60113;48.762;12.302;2023-06-14T13:46:30;2.28;;;1.40;;
72209;SDS011;60113;48.762;12.302;2023-06-14T13:49:08;4.25;;;2.00;;
72209;SDS011;60113;48.762;12.302;2023-06-14T13:51:51;2.53;;;1.70;;
72209;SDS011;60113;48.762;12.302;2023-06-14T13:54:20;2.60;;;1.33;;
72209;SDS011;60113;48.762;12.302;2023-06-14T13:56:46;1.73;;;1.50;;
72209;SDS011;60113;48.762;12.302;2023-06-14T13:59:14;1.77;;;1.45;;
72209;SDS011;60113;48.762;12.302;2023-06-14T14:01:53;2.65;;;1.60;;
72209;SDS011;60113;48.762;12.302;2023-06-14T14:04:24;1.95;;;1.20;;
72209;SDS011;60113;48.762;12.302;2023-06-14T14:06:59;6.10;;;1.35;;
72209;SDS011;60113;48.762;12.302;2023-06-14T14:09:30;2.23;;;1.30;;
72209;SDS011;60113;48.762;12.302;2023-06-14T14:12:14;2.83;;;1.40;;
72209;SDS011;60113;48.762;12.302;2023-06-14T14:14:43;1.95;;;1.42;;
72209;SDS011;60113;48.762;12.302;2023-06-14T14:17:11;2.78;;;1.60;;
72209;SDS011;60113;48.762;12.302;2023-06-14T14:19:49;2.00;;;1.50;;
72209;SDS011;60113;48.762;12.302;2023-06-14T14:22:17;1.60;;;1.30;;
72209;SDS011;60113;48.762;12.302;2023-06-14T14:24:54;1.88;;;1.30;;
72209;SDS011;60113;48.762;12.302;2023-06-14T14:27:20;3.22;;;1.30;;
72209;SDS011;60113;48.762;12.302;2023-06-14T14:29:48;1.98;;;1.48;;
72209;SDS011;60113;48.762;12.302;2023-06-14T14:32:14;1.70;;;1.42;;
72209;SDS011;60113;48.762;12.302;2023-06-14T14:34:40;2.20;;;1.30;;
72209;SDS011;60113;48.762;12.302;2023-06-14T14:37:24;2.45;;;1.70;;
72209;SDS011;60113;48.762;12.302;2023-06-14T14:39:52;2.55;;;1.40;;
72209;SDS011;60113;48.762;12.302;2023-06-14T14:42:22;1.95;;;1.25;;
72209;SDS011;60113;48.762;12.302;2023-06-14T14:44:50;3.50;;;1.70;;
72209;SDS011;60113;48.762;12.302;2023-06-14T14:47:16;1.65;;;1.27;;
72209;SDS011;60113;48.762;12.302;2023-06-14T14:49:41;1.83;;;1.33;;
72209;SDS011;60113;48.762;12.302;2023-06-14T14:52:19;1.80;;;1.17;;
72209;SDS011;60113;48.762;12.302;2023-06-14T14:54:59;2.47;;;1.50;;
72209;SDS011;60113;48.762;12.302;2023-06-14T14:57:37;2.33;;;1.52;;
72209;SDS011;60113;48.762;12.302;2023-06-14T15:00:06;3.65;;;1.80;;
72209;SDS011;60113;48.762;12.302;2023-06-14T15:02:35;1.50;;;1.25;;
72209;SDS011;60113;48.762;12.302;2023-06-14T15:05:16;3.90;;;1.30;;
72209;SDS011;60113;48.762;12.302;2023-06-14T15:07:44;1.90;;;1.30;;
72209;SDS011;60113;48.762;12.302;2023-06-14T15:10:16;2.08;;;1.30;;
72209;SDS011;60113;48.762;12.302;2023-06-14T15:12:42;2.78;;;1.30;;